createdAt,value
2018-08-10T00:00:01.825Z,89.68
2018-08-10T00:05:02.292Z,89.69
2018-08-10T00:10:01.674Z,89.94
2018-08-10T00:15:01.956Z,88.95
2018-08-10T00:20:01.237Z,88.34
2018-08-10T00:25:01.533Z,87.24
2018-08-10T00:30:01.809Z,87.54
2018-08-10T00:35:02.264Z,87.46
2018-08-10T00:40:01.594Z,87.94
2018-08-10T00:45:01.883Z,87.3
2018-08-10T00:50:01.161Z,87.14
2018-08-10T00:55:01.642Z,86.87
2018-08-10T01:00:01.957Z,84.57
2018-08-10T01:05:01.384Z,83.86
2018-08-10T01:10:01.704Z,83.82
2018-08-10T01:15:01.983Z,84.51
2018-08-10T01:20:01.431Z,85.62
2018-08-10T01:25:01.851Z,86.09
2018-08-10T01:30:02.160Z,84.28
2018-08-10T01:35:01.499Z,83.44
2018-08-10T01:40:01.835Z,84.23
2018-08-10T01:45:02.154Z,83.99
2018-08-10T01:50:01.458Z,84.61
2018-08-10T01:55:01.780Z,84.36
2018-08-10T02:00:02.110Z,84.89
2018-08-10T02:05:01.476Z,84.48
2018-08-10T02:10:01.818Z,85.7
2018-08-10T02:15:02.197Z,85.52
2018-08-10T02:20:01.503Z,85.82
2018-08-10T02:25:01.954Z,86.15
2018-08-10T02:30:01.302Z,86.25
2018-08-10T02:35:01.893Z,86.72
2018-08-10T02:40:01.520Z,87.31
2018-08-10T02:45:01.357Z,87.18
2018-08-10T02:50:01.654Z,87.72
2018-08-10T02:55:01.863Z,88.05
2018-08-10T03:00:02.138Z,88.15
2018-08-10T03:05:01.445Z,88.13
2018-08-10T03:10:01.746Z,89.11
2018-08-10T03:15:02.002Z,89.12
2018-08-10T03:20:01.393Z,89.61
2018-08-10T03:25:01.846Z,89.84
2018-08-10T03:30:02.151Z,90.13
2018-08-10T03:35:01.410Z,90.41
2018-08-10T03:40:01.741Z,91.55
2018-08-10T03:45:02.011Z,91.67
2018-08-10T03:50:01.267Z,91.75
2018-08-10T03:55:01.553Z,92.19
2018-08-10T04:00:01.834Z,92.48
2018-08-10T04:05:02.238Z,92.47
2018-08-10T04:10:01.616Z,92.71
2018-08-10T04:15:01.866Z,92.54
2018-08-10T04:20:01.216Z,92.65
2018-08-10T04:25:01.531Z,92.86
2018-08-10T04:30:01.902Z,93.2
2018-08-10T04:35:01.313Z,93.64
2018-08-10T04:40:01.978Z,93.56
2018-08-10T04:45:01.224Z,93.34
2018-08-10T04:50:01.508Z,93.49
2018-08-10T04:55:01.828Z,93.39
2018-08-10T05:00:02.173Z,93.36
2018-08-10T05:05:01.443Z,92.58
2018-08-10T05:10:01.729Z,92.75
2018-08-10T05:15:01.973Z,92.74
2018-08-10T05:20:01.427Z,92.09
2018-08-10T05:25:01.746Z,92.21
2018-08-10T05:30:02.070Z,92.48
2018-08-10T05:35:01.352Z,91.2
2018-08-10T05:40:01.646Z,90.4
2018-08-10T05:45:01.937Z,89.78
2018-08-10T05:50:01.176Z,89.12
2018-08-10T05:55:01.446Z,88.22
2018-08-10T06:00:01.737Z,86.98
2018-08-10T06:05:02.169Z,86
2018-08-10T06:10:01.513Z,84.66
2018-08-10T06:15:01.795Z,83.9
2018-08-10T06:20:02.590Z,83.58
2018-08-10T06:25:02.220Z,81.68
2018-08-10T06:30:01.669Z,80.77
2018-08-10T06:35:02.097Z,79.31
2018-08-10T06:40:01.471Z,76.3
2018-08-10T06:45:02.148Z,74.06
2018-08-10T06:50:01.613Z,72.72
2018-08-10T06:55:02.093Z,68.09
2018-08-10T07:00:01.426Z,67.1
2018-08-10T07:05:01.944Z,65.92
2018-08-10T07:10:01.250Z,65.06
2018-08-10T07:15:01.535Z,63.56
2018-08-10T07:20:01.949Z,64.48
2018-08-10T07:25:01.246Z,63.71
2018-08-10T07:30:01.492Z,60.23
2018-08-10T07:35:01.964Z,60.42
2018-08-10T07:40:01.254Z,61.07
2018-08-10T07:45:01.479Z,59.79
2018-08-10T07:50:01.721Z,58.27
2018-08-10T07:55:02.029Z,57.79
2018-08-10T08:00:01.277Z,58.38
2018-08-10T08:05:01.688Z,57.72
2018-08-10T08:10:02.149Z,56.92
2018-08-10T08:15:01.467Z,55.02
2018-08-10T08:20:01.950Z,55.31
2018-08-10T08:25:01.248Z,54.14
2018-08-10T08:30:01.530Z,54.81
2018-08-10T08:35:02.303Z,53.36
2018-08-10T08:40:01.828Z,51.98
2018-08-10T08:45:02.123Z,52.96
2018-08-10T08:50:01.408Z,50.42
2018-08-10T08:55:01.776Z,52.5
2018-08-10T09:00:02.067Z,52.67
2018-08-10T09:05:01.413Z,53.64
2018-08-10T09:10:01.799Z,50.01
2018-08-10T09:15:02.150Z,50
2018-08-10T09:20:01.407Z,49.74
2018-08-10T09:25:01.881Z,48.09
2018-08-10T09:30:02.368Z,48.84
2018-08-10T09:35:01.950Z,48.03
2018-08-10T09:40:01.268Z,49.14
2018-08-10T09:45:01.616Z,46.98
2018-08-10T09:50:01.960Z,42.96
2018-08-10T09:55:01.274Z,42.67
2018-08-10T10:00:01.507Z,45.59
2018-08-10T10:05:01.993Z,45.19
2018-08-10T10:10:01.272Z,44.5
2018-08-10T10:15:01.489Z,45.7
2018-08-10T10:20:01.887Z,44.46
2018-08-10T10:25:01.170Z,45.9
2018-08-10T10:30:01.395Z,44.85
2018-08-10T10:35:01.786Z,45.3
2018-08-10T10:40:02.190Z,44.05
2018-08-10T10:45:01.438Z,42.57
2018-08-10T10:50:01.834Z,43.63
2018-08-10T10:55:02.161Z,44.98
2018-08-10T11:00:01.419Z,42.9
2018-08-10T11:05:01.692Z,40.95
2018-08-10T11:10:01.924Z,41.82
2018-08-10T11:15:01.167Z,43.19
2018-08-10T11:20:01.438Z,44.49
2018-08-10T11:25:01.811Z,44.51
2018-08-10T11:30:02.135Z,46.15
2018-08-10T11:35:01.393Z,46.3
2018-08-10T11:40:01.704Z,44.84
2018-08-10T11:45:02.093Z,45.3
2018-08-10T11:50:01.684Z,44.79
2018-08-10T11:55:02.125Z,46.56
2018-08-10T12:00:01.635Z,45.42
2018-08-10T12:05:02.240Z,45.69
2018-08-10T12:10:01.566Z,45.46
2018-08-10T12:15:01.835Z,46.09
2018-08-10T12:20:02.210Z,43.78
2018-08-10T12:25:01.598Z,43.15
2018-08-10T12:30:01.931Z,44.76
2018-08-10T12:35:01.257Z,42.84
2018-08-10T12:40:01.490Z,42.4
2018-08-10T12:45:01.761Z,43.88
2018-08-10T12:50:02.157Z,41.59
2018-08-10T12:55:01.518Z,44.44
2018-08-10T13:00:01.763Z,44.2
2018-08-10T13:05:02.176Z,42.65
2018-08-10T13:10:01.524Z,40.65
2018-08-10T13:15:01.832Z,41.68
2018-08-10T13:20:02.280Z,42.08
2018-08-10T13:25:01.634Z,38.72
2018-08-10T13:30:02.028Z,36.54
2018-08-10T13:35:01.301Z,38.8
2018-08-10T13:40:01.593Z,38.51
2018-08-10T13:45:01.836Z,37.91
2018-08-10T13:50:02.274Z,38.96
2018-08-10T13:55:01.623Z,39.64
2018-08-10T14:00:01.927Z,39.73
2018-08-10T14:05:01.275Z,40
2018-08-10T14:10:01.633Z,40.42
2018-08-10T14:15:01.869Z,40.62
2018-08-10T14:20:02.312Z,40.41
2018-08-10T14:25:01.634Z,41.15
2018-08-10T14:30:02.082Z,38.3
2018-08-10T14:35:01.398Z,38.95
2018-08-10T14:40:01.716Z,37.21
2018-08-10T14:45:01.960Z,37.69
2018-08-10T14:50:01.227Z,37.8
2018-08-10T14:55:01.472Z,37.24
2018-08-10T15:00:01.764Z,38.54
2018-08-10T15:05:02.231Z,39.09
2018-08-10T15:10:01.515Z,39.31
2018-08-10T15:15:01.754Z,41.25
2018-08-10T15:20:02.130Z,40.19
2018-08-10T15:25:01.784Z,39.44
2018-08-10T15:30:01.237Z,37.98
2018-08-10T15:35:01.611Z,38.48
2018-08-10T15:40:01.879Z,39.85
2018-08-10T15:45:02.154Z,41.74
2018-08-10T15:50:01.848Z,41.11
2018-08-10T15:55:01.404Z,39.53
2018-08-10T16:00:01.686Z,37.16
2018-08-10T16:05:02.146Z,34.87
2018-08-10T16:10:01.487Z,37.19
2018-08-10T16:15:01.737Z,35.97
2018-08-10T16:20:02.139Z,36.92
2018-08-10T16:25:01.474Z,39.51
2018-08-10T16:30:01.741Z,38.95
2018-08-10T16:35:02.129Z,40.63
2018-08-10T16:40:01.479Z,42.31
2018-08-10T16:45:01.752Z,42.96
2018-08-10T16:50:02.099Z,42.17
2018-08-10T16:55:01.423Z,40.02
2018-08-10T17:00:01.711Z,39.48
2018-08-10T17:05:02.107Z,40.52
2018-08-10T17:10:01.409Z,43.92
2018-08-10T17:15:01.729Z,40.84
2018-08-10T17:20:02.148Z,41.74
2018-08-10T17:25:01.504Z,41.23
2018-08-10T17:30:01.802Z,41.47
2018-08-10T17:35:02.279Z,43.5
2018-08-10T17:40:01.591Z,43.4
2018-08-10T17:45:01.839Z,43.32
2018-08-10T17:50:02.213Z,43.97
2018-08-10T17:55:01.537Z,42.56
2018-08-10T18:00:01.788Z,41.28
2018-08-10T18:05:02.171Z,42.49
2018-08-10T18:10:01.610Z,43.39
2018-08-10T18:15:02.138Z,43.6
2018-08-10T18:20:01.376Z,45.11
2018-08-10T18:25:01.655Z,45.03
2018-08-10T18:30:01.899Z,46.08
2018-08-10T18:35:01.238Z,45.92
2018-08-10T18:40:01.517Z,48.15
2018-08-10T18:45:01.793Z,49.85
2018-08-10T18:50:02.248Z,47.09
2018-08-10T18:55:01.636Z,48.39
2018-08-10T19:00:01.870Z,51.55
2018-08-10T19:05:02.333Z,51
2018-08-10T19:10:01.665Z,50.65
2018-08-10T19:15:01.958Z,51.48
2018-08-10T19:20:01.213Z,53.22
2018-08-10T19:25:01.651Z,52.35
2018-08-10T19:30:01.932Z,54.16
2018-08-10T19:35:01.191Z,52.86
2018-08-10T19:40:01.464Z,53.15
2018-08-10T19:45:01.725Z,53.5
2018-08-10T19:50:02.069Z,54.73
2018-08-10T19:55:01.386Z,56.82
2018-08-10T20:00:01.629Z,56.18
2018-08-10T20:05:02.036Z,58.74
2018-08-10T20:10:01.390Z,55.56
2018-08-10T20:15:02.203Z,57.14
2018-08-10T20:20:01.548Z,55.61
2018-08-10T20:25:01.989Z,54.96
2018-08-10T20:30:01.282Z,54.92
2018-08-10T20:35:01.619Z,53.6
2018-08-10T20:40:01.931Z,53.23
2018-08-10T20:45:01.193Z,52.58
2018-08-10T20:50:01.444Z,52.33
2018-08-10T20:55:01.726Z,52.09
2018-08-10T21:00:02.025Z,51.64
2018-08-10T21:05:01.356Z,51.67
2018-08-10T21:10:01.603Z,51.83
2018-08-10T21:15:01.873Z,52.09
2018-08-10T21:20:02.327Z,51.99
2018-08-10T21:25:01.837Z,52.39
2018-08-10T21:30:02.108Z,54.25
2018-08-10T21:35:01.383Z,54.26
2018-08-10T21:40:01.702Z,54.71
2018-08-10T21:45:01.954Z,54.89
2018-08-10T21:50:01.215Z,54.98
2018-08-10T21:55:01.539Z,54.79
2018-08-10T22:00:01.868Z,55.28
2018-08-10T22:05:02.250Z,55.71
2018-08-10T22:10:01.593Z,56.63
2018-08-10T22:15:01.837Z,57.44
2018-08-10T22:20:02.216Z,58.01
2018-08-10T22:25:01.593Z,58.88
2018-08-10T22:30:01.822Z,59.54
2018-08-10T22:35:01.167Z,59.9
2018-08-10T22:40:01.429Z,60.75
2018-08-10T22:45:01.705Z,60.97
2018-08-10T22:50:02.080Z,61.63
2018-08-10T22:55:01.406Z,61.83
2018-08-10T23:00:01.669Z,61.94
2018-08-10T23:05:02.062Z,62.48
2018-08-10T23:10:01.343Z,63.31
2018-08-10T23:15:01.627Z,63.37
2018-08-10T23:20:02.062Z,64.8
2018-08-10T23:25:01.465Z,65.32
2018-08-10T23:30:01.776Z,65.98
2018-08-10T23:35:02.211Z,66.19
2018-08-10T23:40:01.568Z,64.43
2018-08-10T23:45:01.859Z,64.15
2018-08-10T23:50:02.167Z,63.79
2018-08-10T23:55:01.508Z,63.5
